Fairview, Wyoming
Current Conditions -  °F | °C
As of 6:55 AM on Monday 24 Nov 2014 (Local Time) from KAFO Reporting Station
Broken Clouds Broken Clouds  
Wind Chill: 13°   Ceiling: 3200
Heat Index: 25°   Visibility: 10mi
Dew Point: 19°   Wind: 13mph
Humidity: 80%   Direction: 320°NW
Pressure: 30.12"   Gusts: NA
Location:  42.69°N, 110.98°W
Report Text: KAFO 241355Z AUTO 32011KT 10SM SCT020 SCT026 BKN032 M04/M07 A3012 RMK AO2
Loading
Personal Weather Stations






























Interactive Weather Map New forecast layout! Learn more

10-Day Weather Forecast

Advertisements
Track Severe Weather on mobile